Wetterdaten: Woche 27.08.12 - 02.09.12 (KW35)
Datum Zeit Temp. A. Feuchte A. Luftdruck Regen Wind Richtung Taupunkt Windchill Windben
27.08.2012 00:00 17,6 C 63 % 1015,4 hPa 0,0 l/m 20,0 km/h N 10,5 C 13,1 C 42,6 km/h
27.08.2012 01:00 17,1 C 66 % 1015,8 hPa 0,0 l/m 20,1 km/h N 10,8 C 12,5 C 41,8 km/h
27.08.2012 02:00 16,8 C 68 % 1016,3 hPa 0,0 l/m 14,3 km/h N 10,9 C 13,6 C 33,8 km/h
27.08.2012 03:00 16,6 C 70 % 1016,4 hPa 0,0 l/m 15,1 km/h N 11,0 C 13,1 C 31,4 km/h
27.08.2012 04:00 16,4 C 71 % 1016,3 hPa 0,0 l/m 16,0 km/h N 11,2 C 12,6 C 36,2 km/h
27.08.2012 05:00 16,4 C 72 % 1016,9 hPa 0,0 l/m 14,9 km/h N 11,3 C 13,0 C 36,6 km/h
27.08.2012 06:00 16,2 C 74 % 1017,9 hPa 0,0 l/m 11,4 km/h N 11,5 C 13,9 C 28,2 km/h
27.08.2012 07:00 16,5 C 73 % 1018,7 hPa 0,0 l/m 13,2 km/h N 11,7 C 13,6 C 28,6 km/h
27.08.2012 08:00 16,9 C 73 % 1019,3 hPa 0,0 l/m 12,1 km/h N 11,9 C 14,4 C 29,0 km/h
27.08.2012 09:00 17,4 C 71 % 1019,8 hPa 0,0 l/m 11,6 km/h N 12,1 C 15,1 C 27,4 km/h
27.08.2012 10:00 17,9 C 70 % 1020,1 hPa 0,0 l/m 13,4 km/h N 12,3 C 15,2 C 29,4 km/h
27.08.2012 11:00 18,7 C 68 % 1020,3 hPa 0,0 l/m 12,9 km/h N 12,7 C 16,2 C 29,8 km/h
27.08.2012 12:00 18,5 C 72 % 1020,5 hPa 0,0 l/m 11,8 km/h N 13,3 C 16,4 C 27,4 km/h
27.08.2012 13:00 19,0 C 70 % 1020,5 hPa 0,0 l/m 10,1 km/h N 13,3 C 17,6 C 25,8 km/h
27.08.2012 14:00 19,2 C 68 % 1020,6 hPa 0,0 l/m 9,0 km/h N 13,2 C 18,1 C 24,5 km/h
27.08.2012 15:00 20,4 C 63 % 1020,0 hPa 0,0 l/m 10,7 km/h N 13,2 C 18,9 C 27,8 km/h
27.08.2012 16:00 20,9 C 60 % 1020,1 hPa 0,0 l/m 10,9 km/h N 12,8 C 19,4 C 27,0 km/h
27.08.2012 17:00 21,1 C 57 % 1020,0 hPa 0,0 l/m 10,0 km/h N 12,2 C 19,8 C 24,1 km/h
27.08.2012 18:00 20,7 C 57 % 1019,8 hPa 0,0 l/m 9,4 km/h N 11,9 C 19,6 C 22,9 km/h
27.08.2012 19:00 20,0 C 59 % 1019,9 hPa 0,0 l/m 3,8 km/h N 11,8 C 19,8 C 11,7 km/h
27.08.2012 20:00 18,4 C 64 % 1020,5 hPa 0,0 l/m 0,1 km/h N 11,5 C 18,4 C 2,4 km/h
27.08.2012 21:00 16,7 C 69 % 1021,0 hPa 0,0 l/m 0,0 km/h N 11,0 C 16,7 C 0,4 km/h
27.08.2012 22:00 15,6 C 71 % 1021,3 hPa 0,0 l/m 0,0 km/h N 10,4 C 15,6 C 0,0 km/h
27.08.2012 23:00 14,6 C 76 % 1021,4 hPa 0,0 l/m 0,1 km/h N 10,4 C 14,6 C 2,0 km/h
28.08.2012 00:00 14,3 C 77 % 1021,3 hPa 0,0 l/m 0,2 km/h N 10,3 C 14,3 C 3,2 km/h
28.08.2012 01:00 13,6 C 78 % 1021,2 hPa 0,0 l/m 0,0 km/h N 9,8 C 13,6 C 0,8 km/h
28.08.2012 02:00 12,7 C 80 % 1020,9 hPa 0,0 l/m 0,0 km/h N 9,3 C 12,7 C 1,2 km/h
28.08.2012 03:00 11,7 C 82 % 1020,8 hPa 0,0 l/m 0,2 km/h N 8,7 C 11,7 C 2,8 km/h
28.08.2012 04:00 11,4 C 83 % 1020,7 hPa 0,0 l/m 0,1 km/h N 8,5 C 11,4 C 1,6 km/h
28.08.2012 05:00 10,5 C 83 % 1020,7 hPa 0,0 l/m 0,0 km/h N 7,7 C 10,5 C 0,0 km/h
28.08.2012 06:00 9,7 C 83 % 1020,8 hPa 0,0 l/m 0,0 km/h N 6,9 C 9,7 C 0,0 km/h
28.08.2012 07:00 10,1 C 81 % 1021,0 hPa 0,0 l/m 0,0 km/h N 6,9 C 10,1 C 0,0 km/h
28.08.2012 08:00 13,3 C 80 % 1020,8 hPa 0,0 l/m 0,4 km/h N 9,8 C 13,3 C 4,0 km/h
28.08.2012 09:00 17,3 C 72 % 1020,5 hPa 0,0 l/m 1,6 km/h N 12,1 C 17,3 C 8,8 km/h
28.08.2012 10:00 21,2 C 60 % 1019,8 hPa 0,0 l/m 5,4 km/h N 12,9 C 21,0 C 17,7 km/h
28.08.2012 11:00 23,3 C 54 % 1019,5 hPa 0,0 l/m 6,6 km/h N 13,3 C 23,1 C 20,1 km/h
28.08.2012 12:00 24,7 C 49 % 1018,9 hPa 0,0 l/m 6,3 km/h N 13,3 C 24,6 C 19,7 km/h
28.08.2012 13:00 26,1 C 45 % 1018,3 hPa 0,0 l/m 5,1 km/h N 13,1 C 26,1 C 17,3 km/h
28.08.2012 14:00 27,3 C 41 % 1017,9 hPa 0,0 l/m 2,8 km/h N 13,0 C 27,3 C 14,9 km/h
28.08.2012 15:00 26,8 C 41 % 1017,7 hPa 0,0 l/m 2,5 km/h N 12,3 C 26,8 C 12,1 km/h
28.08.2012 16:00 26,2 C 42 % 1017,1 hPa 0,0 l/m 2,0 km/h N 12,4 C 26,2 C 8,5 km/h
28.08.2012 17:00 26,3 C 44 % 1016,9 hPa 0,0 l/m 1,2 km/h N 12,9 C 26,3 C 8,4 km/h
28.08.2012 18:00 25,9 C 45 % 1016,6 hPa 0,0 l/m 0,3 km/h N 13,1 C 25,9 C 3,2 km/h
28.08.2012 19:00 24,3 C 53 % 1016,6 hPa 0,0 l/m 0,0 km/h N 14,0 C 24,3 C 0,4 km/h
28.08.2012 20:00 20,9 C 63 % 1017,0 hPa 0,0 l/m 0,0 km/h N 13,5 C 20,9 C 0,0 km/h
28.08.2012 21:00 18,4 C 71 % 1017,5 hPa 0,0 l/m 0,1 km/h N 13,0 C 18,4 C 1,2 km/h
28.08.2012 22:00 17,3 C 76 % 1017,4 hPa 0,0 l/m 0,0 km/h N 12,9 C 17,3 C 0,8 km/h
28.08.2012 23:00 16,8 C 76 % 1017,3 hPa 0,0 l/m 0,0 km/h N 12,4 C 16,8 C 0,4 km/h
29.08.2012 00:00 15,7 C 79 % 1017,6 hPa 0,0 l/m 0,0 km/h N 12,0 C 15,7 C 0,0 km/h
29.08.2012 01:00 15,6 C 79 % 1017,6 hPa 0,0 l/m 0,1 km/h N 11,9 C 15,6 C 2,8 km/h
29.08.2012 02:00 16,2 C 77 % 1017,6 hPa 0,0 l/m 0,0 km/h N 12,2 C 16,2 C 0,8 km/h
29.08.2012 03:00 16,8 C 77 % 1017,9 hPa 0,0 l/m 0,0 km/h N 12,7 C 16,8 C 1,2 km/h
29.08.2012 04:00 19,4 C 69 % 1018,0 hPa 0,0 l/m 3,0 km/h N 13,4 C 19,4 C 12,1 km/h
29.08.2012 05:00 21,2 C 65 % 1018,5 hPa 0,0 l/m 7,4 km/h N 14,4 C 20,5 C 21,0 km/h
29.08.2012 06:00 21,0 C 67 % 1019,2 hPa 0,0 l/m 10,7 km/h N 14,5 C 19,5 C 24,5 km/h
29.08.2012 07:00 20,6 C 67 % 1020,0 hPa 0,0 l/m 5,1 km/h N 14,3 C 20,6 C 16,5 km/h
29.08.2012 08:00 21,0 C 67 % 1020,2 hPa 0,0 l/m 3,3 km/h N 14,6 C 21,0 C 11,3 km/h
29.08.2012 09:00 22,4 C 61 % 1020,6 hPa 0,0 l/m 4,5 km/h N 14,6 C 22,4 C 13,3 km/h
29.08.2012 10:00 23,3 C 58 % 1020,7 hPa 0,0 l/m 2,6 km/h N 14,6 C 23,3 C 9,7 km/h
29.08.2012 11:00 24,3 C 54 % 1020,6 hPa 0,0 l/m 2,8 km/h N 14,4 C 24,3 C 10,5 km/h
29.08.2012 12:00 26,4 C 49 % 1020,0 hPa 0,0 l/m 3,0 km/h N 14,6 C 26,4 C 11,3 km/h
29.08.2012 13:00 27,2 C 46 % 1019,5 hPa 0,0 l/m 2,5 km/h N 14,5 C 27,2 C 10,1 km/h
29.08.2012 14:00 28,2 C 43 % 1019,0 hPa 0,0 l/m 3,2 km/h N 14,4 C 28,2 C 12,1 km/h
29.08.2012 15:00 27,3 C 44 % 1018,5 hPa 0,0 l/m 1,7 km/h N 13,9 C 27,3 C 6,4 km/h
29.08.2012 16:00 27,2 C 44 % 1018,0 hPa 0,0 l/m 1,0 km/h N 13,9 C 27,2 C 6,8 km/h
29.08.2012 17:00 27,1 C 43 % 1017,7 hPa 0,0 l/m 0,4 km/h N 13,4 C 27,1 C 5,2 km/h
29.08.2012 18:00 26,7 C 43 % 1017,5 hPa 0,0 l/m 0,0 km/h N 13,2 C 26,7 C 1,2 km/h
29.08.2012 19:00 25,8 C 47 % 1017,5 hPa 0,0 l/m 0,1 km/h N 13,4 C 25,8 C 2,0 km/h
29.08.2012 20:00 22,7 C 57 % 1017,8 hPa 0,0 l/m 0,0 km/h N 13,6 C 22,7 C 0,0 km/h
29.08.2012 21:00 20,4 C 64 % 1018,1 hPa 0,0 l/m 0,0 km/h N 13,2 C 20,4 C 0,0 km/h
29.08.2012 22:00 18,4 C 71 % 1018,3 hPa 0,0 l/m 0,0 km/h N 13,0 C 18,4 C 0,0 km/h
29.08.2012 23:00 17,4 C 76 % 1018,4 hPa 0,0 l/m 0,0 km/h N 13,0 C 17,4 C 0,8 km/h
30.08.2012 00:00 17,2 C 77 % 1018,3 hPa 0,0 l/m 0,0 km/h N 13,1 C 17,2 C 0,8 km/h
30.08.2012 01:00 16,5 C 78 % 1018,1 hPa 0,0 l/m 0,0 km/h N 12,5 C 16,5 C 0,0 km/h
30.08.2012 02:00 15,4 C 80 % 1017,8 hPa 0,0 l/m 0,0 km/h N 11,9 C 15,4 C 0,0 km/h
30.08.2012 03:00 14,6 C 82 % 1017,6 hPa 0,0 l/m 0,0 km/h N 11,5 C 14,6 C 0,0 km/h
30.08.2012 04:00 14,0 C 82 % 1017,4 hPa 0,0 l/m 0,0 km/h N 10,9 C 14,0 C 0,0 km/h
30.08.2012 05:00 13,5 C 82 % 1017,5 hPa 0,0 l/m 0,0 km/h N 10,3 C 13,5 C 0,0 km/h
30.08.2012 06:00 13,0 C 81 % 1017,7 hPa 0,0 l/m 0,0 km/h N 9,8 C 13,0 C 0,0 km/h
30.08.2012 07:00 13,8 C 79 % 1017,8 hPa 0,0 l/m 0,0 km/h N 10,1 C 13,8 C 0,0 km/h
30.08.2012 08:00 16,7 C 79 % 1017,7 hPa 0,0 l/m 0,0 km/h N 13,0 C 16,7 C 1,6 km/h
30.08.2012 09:00 21,5 C 65 % 1017,4 hPa 0,0 l/m 1,0 km/h N 14,6 C 21,5 C 6,4 km/h
30.08.2012 10:00 24,8 C 55 % 1017,4 hPa 0,0 l/m 1,4 km/h N 15,0 C 24,8 C 9,3 km/h
30.08.2012 11:00 26,9 C 48 % 1017,0 hPa 0,0 l/m 2,1 km/h N 15,0 C 26,9 C 8,9 km/h
30.08.2012 12:00 29,0 C 44 % 1016,3 hPa 0,0 l/m 2,7 km/h N 15,5 C 29,0 C 11,3 km/h
30.08.2012 13:00 30,6 C 43 % 1015,1 hPa 0,0 l/m 3,3 km/h N 16,4 C 30,6 C 13,3 km/h
30.08.2012 14:00 31,5 C 36 % 1014,3 hPa 0,0 l/m 4,4 km/h N 14,7 C 31,5 C 15,7 km/h
30.08.2012 15:00 30,5 C 36 % 1014,1 hPa 0,0 l/m 5,8 km/h N 13,8 C 30,6 C 16,9 km/h
30.08.2012 16:00 30,7 C 34 % 1013,7 hPa 0,0 l/m 7,2 km/h N 13,0 C 30,6 C 19,3 km/h
30.08.2012 17:00 30,1 C 36 % 1013,2 hPa 0,0 l/m 6,4 km/h N 13,1 C 30,1 C 17,7 km/h
30.08.2012 18:00 29,2 C 39 % 1012,9 hPa 0,0 l/m 4,0 km/h N 13,8 C 29,2 C 16,9 km/h
30.08.2012 19:00 27,6 C 42 % 1012,8 hPa 0,0 l/m 3,5 km/h N 13,6 C 27,6 C 11,3 km/h
30.08.2012 20:00 26,1 C 46 % 1012,7 hPa 0,0 l/m 0,8 km/h N 13,5 C 26,1 C 4,8 km/h
30.08.2012 21:00 23,8 C 52 % 1012,4 hPa 0,0 l/m 0,8 km/h N 13,3 C 23,8 C 4,0 km/h
30.08.2012 22:00 22,8 C 54 % 1012,0 hPa 0,0 l/m 0,9 km/h N 13,0 C 22,8 C 4,4 km/h
30.08.2012 23:00 22,9 C 53 % 1011,8 hPa 0,0 l/m 2,6 km/h N 12,7 C 22,9 C 8,4 km/h
31.08.2012 00:00 23,7 C 50 % 1011,5 hPa 0,0 l/m 2,4 km/h N 12,6 C 23,7 C 8,8 km/h
31.08.2012 01:00 23,8 C 50 % 1011,7 hPa 0,0 l/m 1,5 km/h N 12,8 C 23,8 C 10,9 km/h
31.08.2012 02:00 23,2 C 60 % 1012,0 hPa 0,0 l/m 0,6 km/h N 14,9 C 23,2 C 8,1 km/h
31.08.2012 03:00 22,1 C 66 % 1011,9 hPa 0,0 l/m 2,5 km/h N 15,5 C 22,1 C 12,1 km/h
31.08.2012 04:00 20,3 C 71 % 1012,1 hPa 0,0 l/m 5,8 km/h N 14,8 C 20,1 C 17,7 km/h
31.08.2012 05:00 19,0 C 72 % 1012,6 hPa 0,0 l/m 6,3 km/h N 13,8 C 19,0 C 26,5 km/h
31.08.2012 06:00 18,5 C 73 % 1013,4 hPa 0,0 l/m 6,3 km/h N 13,6 C 18,4 C 28,2 km/h
31.08.2012 07:00 18,1 C 76 % 1014,1 hPa 0,0 l/m 4,5 km/h N 13,7 C 18,1 C 21,3 km/h
31.08.2012 08:00 17,5 C 78 % 1014,7 hPa 0,0 l/m 1,5 km/h N 13,5 C 17,5 C 11,7 km/h
31.08.2012 09:00 16,9 C 79 % 1015,0 hPa 0,3 l/m 7,4 km/h N 13,2 C 16,1 C 20,1 km/h
31.08.2012 10:00 16,1 C 81 % 1015,5 hPa 0,5 l/m 5,1 km/h N 12,9 C 16,1 C 14,5 km/h
31.08.2012 11:00 15,5 C 82 % 1015,8 hPa 0,5 l/m 2,5 km/h N 12,4 C 15,5 C 10,5 km/h
31.08.2012 12:00 15,4 C 82 % 1015,7 hPa 0,0 l/m 2,8 km/h N 12,3 C 15,4 C 10,9 km/h
31.08.2012 13:00 15,5 C 81 % 1016,0 hPa 0,3 l/m 5,3 km/h N 12,2 C 15,3 C 16,9 km/h
31.08.2012 14:00 15,0 C 82 % 1015,9 hPa 0,0 l/m 5,5 km/h N 11,9 C 14,8 C 16,5 km/h
31.08.2012 15:00 15,1 C 82 % 1016,1 hPa 0,3 l/m 4,8 km/h N 12,0 C 14,9 C 14,9 km/h
31.08.2012 16:00 15,0 C 82 % 1016,2 hPa 0,3 l/m 4,2 km/h N 11,9 C 15,0 C 15,7 km/h
31.08.2012 17:00 14,6 C 82 % 1016,3 hPa 0,3 l/m 5,9 km/h N 11,5 C 14,5 C 19,7 km/h
31.08.2012 18:00 14,2 C 82 % 1016,0 hPa 0,0 l/m 10,2 km/h N 11,1 C 12,2 C 26,2 km/h
31.08.2012 19:00 13,7 C 82 % 1016,3 hPa 0,3 l/m 9,3 km/h N 10,7 C 12,0 C 24,9 km/h
31.08.2012 20:00 13,7 C 82 % 1016,7 hPa 0,0 l/m 8,5 km/h N 10,7 C 12,5 C 22,5 km/h
31.08.2012 21:00 13,8 C 82 % 1017,3 hPa 0,8 l/m 5,4 km/h N 10,8 C 13,7 C 17,7 km/h
31.08.2012 22:00 13,4 C 82 % 1017,4 hPa 3,9 l/m 4,9 km/h N 10,3 C 13,3 C 15,3 km/h
31.08.2012 23:00 13,3 C 81 % 1017,3 hPa 0,0 l/m 8,8 km/h N 10,1 C 11,6 C 22,9 km/h
01.09.2012 00:00 13,4 C 81 % 1017,3 hPa 2,1 l/m 7,3 km/h N 10,2 C 12,7 C 18,1 km/h
01.09.2012 01:00 13,2 C 81 % 1017,3 hPa 2,9 l/m 6,9 km/h N 10,0 C 12,5 C 17,3 km/h
01.09.2012 02:00 13,1 C 81 % 1017,3 hPa 2,6 l/m 5,7 km/h N 9,8 C 13,1 C 16,1 km/h
01.09.2012 03:00 13,0 C 80 % 1017,5 hPa 3,1 l/m 5,3 km/h N 9,6 C 12,8 C 16,5 km/h
01.09.2012 04:00 13,0 C 80 % 1017,6 hPa 2,1 l/m 3,2 km/h N 9,6 C 13,0 C 15,7 km/h
01.09.2012 05:00 12,9 C 80 % 1017,2 hPa 2,9 l/m 7,3 km/h N 9,5 C 12,0 C 23,3 km/h
01.09.2012 06:00 12,9 C 81 % 1018,0 hPa 0,3 l/m 4,3 km/h N 9,7 C 12,9 C 14,5 km/h
01.09.2012 07:00 13,0 C 81 % 1018,3 hPa 0,3 l/m 2,3 km/h N 9,8 C 13,0 C 10,5 km/h
01.09.2012 08:00 13,2 C 81 % 1018,7 hPa 0,8 l/m 4,0 km/h N 10,0 C 13,2 C 17,3 km/h
01.09.2012 09:00 13,6 C 81 % 1019,3 hPa 0,3 l/m 2,4 km/h N 10,4 C 13,6 C 10,1 km/h
01.09.2012 10:00 14,0 C 81 % 1020,0 hPa 0,3 l/m 2,1 km/h N 10,7 C 14,0 C 8,4 km/h
01.09.2012 11:00 14,4 C 81 % 1020,3 hPa 0,5 l/m 3,8 km/h N 11,1 C 14,2 C 12,5 km/h
01.09.2012 12:00 14,7 C 81 % 1020,6 hPa 0,5 l/m 2,3 km/h N 11,5 C 14,7 C 11,7 km/h
01.09.2012 13:00 15,2 C 81 % 1020,9 hPa 0,3 l/m 2,3 km/h N 11,9 C 15,2 C 12,1 km/h
01.09.2012 14:00 15,5 C 81 % 1021,0 hPa 0,3 l/m 1,8 km/h N 12,3 C 15,5 C 8,0 km/h
01.09.2012 15:00 15,7 C 82 % 1021,4 hPa 1,3 l/m 1,0 km/h N 12,6 C 15,7 C 7,2 km/h
01.09.2012 16:00 15,7 C 80 % 1020,8 hPa 0,5 l/m 4,2 km/h N 12,3 C 15,7 C 12,1 km/h
01.09.2012 17:00 16,4 C 82 % 1021,2 hPa 0,0 l/m 4,2 km/h N 13,3 C 16,4 C 11,7 km/h
01.09.2012 18:00 16,7 C 82 % 1021,4 hPa 0,0 l/m 3,7 km/h N 13,6 C 16,7 C 10,5 km/h
01.09.2012 19:00 16,1 C 82 % 1021,2 hPa 0,3 l/m 4,0 km/h N 13,0 C 16,1 C 11,7 km/h
01.09.2012 20:00 15,6 C 82 % 1021,3 hPa 0,0 l/m 2,5 km/h N 12,5 C 15,6 C 9,7 km/h
01.09.2012 21:00 15,7 C 82 % 1021,8 hPa 0,0 l/m 3,9 km/h N 12,7 C 15,7 C 12,1 km/h
01.09.2012 22:00 15,8 C 82 % 1022,2 hPa 0,0 l/m 2,9 km/h N 12,8 C 15,8 C 10,1 km/h
01.09.2012 23:00 16,1 C 82 % 1022,8 hPa 0,0 l/m 3,9 km/h N 13,0 C 16,1 C 11,7 km/h
02.09.2012 00:00 15,9 C 82 % 1022,5 hPa 0,0 l/m 4,3 km/h N 12,8 C 15,9 C 10,9 km/h
02.09.2012 01:00 16,0 C 82 % 1022,4 hPa 0,0 l/m 4,2 km/h N 12,8 C 16,0 C 11,7 km/h
02.09.2012 02:00 16,1 C 82 % 1022,1 hPa 0,0 l/m 3,0 km/h N 13,0 C 16,1 C 9,7 km/h
02.09.2012 03:00 15,9 C 82 % 1021,9 hPa 0,0 l/m 2,2 km/h N 12,9 C 15,9 C 8,4 km/h
02.09.2012 04:00 15,8 C 82 % 1021,4 hPa 0,0 l/m 4,1 km/h N 12,8 C 15,8 C 11,7 km/h
02.09.2012 05:00 15,9 C 82 % 1021,5 hPa 0,0 l/m 3,5 km/h N 12,8 C 15,9 C 10,5 km/h
02.09.2012 06:00 15,9 C 82 % 1021,8 hPa 0,0 l/m 5,1 km/h N 12,9 C 15,9 C 12,9 km/h
02.09.2012 07:00 15,8 C 83 % 1022,1 hPa 0,0 l/m 5,2 km/h N 12,9 C 15,8 C 16,1 km/h
02.09.2012 08:00 15,9 C 83 % 1022,3 hPa 0,0 l/m 6,9 km/h N 13,0 C 15,6 C 18,1 km/h
02.09.2012 09:00 16,3 C 83 % 1022,7 hPa 0,0 l/m 5,8 km/h N 13,4 C 16,3 C 14,9 km/h
02.09.2012 10:00 17,0 C 82 % 1022,5 hPa 0,0 l/m 6,2 km/h N 13,9 C 16,9 C 15,3 km/h
02.09.2012 11:00 17,9 C 81 % 1022,7 hPa 0,0 l/m 7,1 km/h N 14,4 C 17,5 C 16,5 km/h
02.09.2012 12:00 18,9 C 78 % 1022,1 hPa 0,0 l/m 5,8 km/h N 14,9 C 18,9 C 14,5 km/h
02.09.2012 13:00 20,9 C 73 % 1021,5 hPa 0,0 l/m 2,4 km/h N 15,8 C 20,9 C 8,9 km/h
02.09.2012 14:00 22,9 C 68 % 1021,0 hPa 0,0 l/m 1,4 km/h N 16,6 C 22,9 C 8,4 km/h
02.09.2012 15:00 23,0 C 69 % 1020,5 hPa 0,0 l/m 1,5 km/h N 16,8 C 23,0 C 8,0 km/h
02.09.2012 16:00 23,2 C 69 % 1020,0 hPa 0,0 l/m 1,3 km/h N 17,0 C 23,2 C 7,2 km/h
02.09.2012 17:00 23,3 C 68 % 1019,7 hPa 0,0 l/m 0,2 km/h N 17,0 C 23,3 C 4,0 km/h
02.09.2012 18:00 23,2 C 70 % 1019,4 hPa 0,0 l/m 0,0 km/h N 17,4 C 23,2 C 0,0 km/h
02.09.2012 19:00 21,5 C 75 % 1019,5 hPa 0,0 l/m 0,0 km/h N 16,9 C 21,5 C 0,4 km/h
02.09.2012 20:00 19,8 C 80 % 1019,8 hPa 0,0 l/m 0,1 km/h N 16,1 C 19,8 C 1,6 km/h
02.09.2012 21:00 18,8 C 82 % 1020,4 hPa 0,0 l/m 0,2 km/h N 15,7 C 18,8 C 2,4 km/h
02.09.2012 22:00 18,3 C 82 % 1020,6 hPa 0,0 l/m 0,0 km/h N 15,1 C 18,3 C 2,0 km/h
02.09.2012 23:00 17,8 C 81 % 1020,8 hPa 0,0 l/m 0,8 km/h N 14,5 C 17,8 C 5,6 km/h
Min-Datum _ 28.08.12 30.08.12 31.08.12 - 27.08.12 - 28.08.12 28.08.12 27.08.12
_ Min-Zeit 06:45 16:30 00:45 - 20:30 - 06:45 06:45 20:30
Minimum _ 9,5 C 33 % 1011,3 hPa - 0,0 km/h - 6,6 C 9,5 C 0,0 km/h
Max-Datum _ 30.08.12 28.08.12 01.09.12 31.08.12 27.08.12 - 02.09.12 30.08.12 27.08.12
_ Max-Zeit 14:30 04:00 23:45 22:45 00:45 - 18:30 14:30 01:15
Maximum _ 31,8 C 83 % 1023,0 hPa 3,9 l/m 21,9 km/h
N
- 17,6 C 31,8 C 46,7 km/h
N
Durchschnitt _ 18,8 C 69 % 1018,3 hPa #28,3 l/m 4,0 km/h N 12,6 C 18,4 C 12,1 km/h